Time;durP1;ratioP1;P1;durP2;ratioP2;P2;SDS_P1;SDS_P2;PMS_P1;PMS_P2;Temp;Humidity;BMP_temperature;BMP_pressure;BME280_temperature;BME280_humidity;BME280_pressure;Samples;Min_cycle;Max_cycle;Signal;HPM_P1;HPM_P2
2023/03/14 00:02:16;;;;;;;2.97;0.68;;;11.90;99.90;;;;;;4960455;28;20403;-80
2023/03/14 00:04:42;;;;;;;2.33;0.60;;;11.90;99.90;;;;;;4944273;29;20180;-79
2023/03/14 00:07:11;;;;;;;1.83;0.60;;;11.90;99.90;;;;;;4955724;29;20149;-79
2023/03/14 00:09:36;;;;;;;3.78;0.60;;;11.90;99.90;;;;;;4961218;29;20035;-78
2023/03/14 00:12:03;;;;;;;3.13;0.50;;;11.90;99.90;;;;;;4967750;28;20039;-79
2023/03/14 00:14:29;;;;;;;2.42;0.43;;;11.90;99.90;;;;;;4944058;29;20078;-79
2023/03/14 00:16:54;;;;;;;1.95;0.40;;;11.90;99.90;;;;;;4961455;29;20512;-78
2023/03/14 00:19:20;;;;;;;2.50;0.68;;;11.90;99.90;;;;;;4956966;29;20082;-79
2023/03/14 00:21:46;;;;;;;2.75;0.50;;;11.90;99.90;;;;;;4957545;29;20031;-78
2023/03/14 00:24:12;;;;;;;2.00;0.40;;;11.90;99.90;;;;;;4959375;29;20032;-79
2023/03/14 00:26:38;;;;;;;1.63;0.40;;;11.90;99.90;;;;;;4939525;29;20059;-80
2023/03/14 00:29:03;;;;;;;3.03;0.70;;;11.90;99.90;;;;;;4961610;29;20075;-80
2023/03/14 00:31:29;;;;;;;2.33;0.60;;;11.90;99.90;;;;;;4955053;29;20078;-79
2023/03/14 00:33:56;;;;;;;2.53;0.40;;;11.90;99.90;;;;;;4960345;29;20408;-80
2023/03/14 00:36:22;;;;;;;2.88;0.57;;;11.90;99.90;;;;;;4958275;29;20027;-79
2023/03/14 00:38:50;;;;;;;1.40;0.60;;;11.90;99.90;;;;;;4955783;29;20031;-79
2023/03/14 00:41:18;;;;;;;1.83;0.40;;;12.00;99.90;;;;;;4961205;29;20031;-80
2023/03/14 00:43:44;;;;;;;3.97;0.68;;;11.90;99.90;;;;;;4959082;28;20058;-78
2023/03/14 00:46:10;;;;;;;1.70;0.45;;;11.90;99.90;;;;;;4943321;29;20130;-78
2023/03/14 00:48:36;;;;;;;2.80;0.70;;;11.90;99.90;;;;;;4958116;29;20059;-77
2023/03/14 00:51:04;;;;;;;2.78;0.47;;;11.90;99.90;;;;;;4960100;29;20059;-78
2023/03/14 00:53:30;;;;;;;2.17;0.32;;;11.80;99.90;;;;;;4952660;29;20027;-78
2023/03/14 00:55:55;;;;;;;1.70;0.57;;;11.70;99.90;;;;;;4959793;29;20053;-77
2023/03/14 00:58:21;;;;;;;2.13;0.40;;;11.60;99.90;;;;;;4945906;28;20030;-79
2023/03/14 01:00:47;;;;;;;1.17;0.40;;;11.60;99.90;;;;;;4956927;29;20519;-79
2023/03/14 01:03:14;;;;;;;0.85;0.30;;;11.50;99.90;;;;;;4961118;28;20031;-78
2023/03/14 01:05:40;;;;;;;0.85;0.22;;;11.40;99.90;;;;;;4947700;28;20039;-80
2023/03/14 01:08:06;;;;;;;1.40;0.40;;;11.20;99.90;;;;;;4959200;28;20031;-78
2023/03/14 01:10:58;;;;;;;1.23;0.30;;;10.90;99.90;;;;;;4960645;28;20507;-82
2023/03/14 01:13:30;;;;;;;0.93;0.28;;;10.90;99.90;;;;;;4951715;29;20047;-82
2023/03/14 01:16:06;;;;;;;1.80;0.47;;;;;;;;;;4960788;29;20035;-77
2023/03/14 01:18:32;;;;;;;1.98;0.50;;;10.80;99.90;;;;;;4958491;29;20030;-77
2023/03/14 01:20:58;;;;;;;2.20;0.60;;;10.70;99.90;;;;;;4955721;29;20031;-77
2023/03/14 01:23:24;;;;;;;3.38;0.60;;;10.70;99.90;;;;;;4958869;29;20095;-77
2023/03/14 01:25:49;;;;;;;5.10;0.60;;;10.70;99.90;;;;;;4960488;29;20388;-77
2023/03/14 01:28:15;;;;;;;3.53;0.68;;;;;;;;;;4951152;28;20617;-76
2023/03/14 01:30:42;;;;;;;4.78;0.80;;;;;;;;;;4971015;28;20507;-77
2023/03/14 01:33:08;;;;;;;6.97;1.00;;;;;;;;;;4961186;28;20063;-76
2023/03/14 01:35:34;;;;;;;4.82;0.90;;;;;;;;;;4960659;28;20389;-77
2023/03/14 01:38:00;;;;;;;4.45;0.93;;;;;;;;;;4960205;28;20127;-77
2023/03/14 01:40:26;;;;;;;8.93;1.45;;;;;;;;;;4952763;29;20496;-76
2023/03/14 01:42:56;;;;;;;4.57;1.00;;;;;;;;;;4961343;28;20027;-75
2023/03/14 01:45:40;;;;;;;8.63;1.85;;;;;;;;;;4954729;28;20098;-73
2023/03/14 01:48:06;;;;;;;6.10;1.05;;;10.80;99.90;;;;;;4961037;28;20412;-76
2023/03/14 01:50:32;;;;;;;4.43;1.20;;;;;;;;;;4934530;28;20043;-75
2023/03/14 01:52:58;;;;;;;7.00;1.20;;;10.80;99.90;;;;;;4947644;28;20089;-76
2023/03/14 01:55:25;;;;;;;5.45;0.98;;;;;;;;;;4954843;28;20038;-77
2023/03/14 01:58:08;;;;;;;6.78;1.10;;;10.50;99.90;;;;;;4944645;29;20118;-79
2023/03/14 02:01:17;;;;;;;9.40;1.43;;;10.30;99.90;;;;;;4956185;28;20491;-83
2023/03/14 02:04:02;;;;;;;4.93;1.50;;;10.00;99.90;;;;;;4966264;28;20065;-75
2023/03/14 02:06:35;;;;;;;5.30;1.25;;;9.80;99.90;;;;;;4958920;28;20096;-75
2023/03/14 02:09:02;;;;;;;5.70;1.42;;;9.60;99.90;;;;;;4958421;28;20122;-75
2023/03/14 02:11:29;;;;;;;2.60;0.85;;;9.50;99.90;;;;;;4959376;29;20035;-75
2023/03/14 02:14:21;;;;;;;6.88;1.00;;;9.50;99.90;;;;;;4957002;29;20083;-82
2023/03/14 02:16:47;;;;;;;6.18;1.10;;;9.50;99.90;;;;;;4953416;29;20051;-75
2023/03/14 02:19:22;;;;;;;5.65;1.00;;;9.40;99.90;;;;;;4941623;29;20042;-83
2023/03/14 02:22:04;;;;;;;4.57;1.30;;;9.40;99.90;;;;;;4956573;29;20051;-76
2023/03/14 02:24:44;;;;;;;5.90;1.23;;;9.40;99.90;;;;;;4958935;29;20036;-75
2023/03/14 02:27:19;;;;;;;5.32;1.20;;;9.40;99.90;;;;;;4956184;29;20039;-81
2023/03/14 02:33:18;;;;;;;5.03;1.10;;;9.40;99.90;;;;;;4950237;29;20041;-82
2023/03/14 02:35:43;;;;;;;5.20;1.20;;;9.50;99.90;;;;;;4959002;29;20034;-75
2023/03/14 02:38:43;;;;;;;5.25;1.23;;;9.60;99.90;;;;;;4937276;29;20031;-81
2023/03/14 02:41:15;;;;;;;6.80;1.40;;;9.60;99.90;;;;;;4942235;29;20035;-85
2023/03/14 02:43:41;;;;;;;5.40;1.23;;;9.70;99.90;;;;;;4952908;28;20027;-77
2023/03/14 02:46:17;;;;;;;9.13;1.08;;;9.60;99.90;;;;;;4959268;28;20484;-86
2023/03/14 02:48:54;;;;;;;4.45;0.90;;;9.40;99.90;;;;;;4957918;28;20074;-83
2023/03/14 02:52:05;;;;;;;5.20;1.33;;;9.30;99.90;;;;;;4958917;28;20106;-85
2023/03/14 02:58:14;;;;;;;4.70;1.00;;;9.00;99.90;;;;;;4926596;29;20064;-84
2023/03/14 03:00:39;;;;;;;3.85;0.80;;;8.90;99.90;;;;;;4935196;29;20039;-84
2023/03/14 03:03:08;;;;;;;5.18;0.77;;;8.80;99.90;;;;;;4936464;29;20124;-86
2023/03/14 03:05:34;;;;;;;5.18;1.17;;;8.70;99.90;;;;;;4933681;29;20123;-83
2023/03/14 03:08:00;;;;;;;4.05;0.73;;;8.70;99.90;;;;;;4947429;28;20126;-84
2023/03/14 03:10:29;;;;;;;2.80;0.73;;;8.70;99.90;;;;;;4946780;29;20527;-83
2023/03/14 03:13:20;;;;;;;2.72;0.80;;;8.60;99.90;;;;;;4959456;29;20399;-82
2023/03/14 03:15:46;;;;;;;4.93;0.80;;;8.70;99.90;;;;;;4950884;29;20063;-81
2023/03/14 03:19:10;;;;;;;;;;;;;;;;;;;;;
2023/03/14 03:21:54;;;;;;;;;;;;;;;;;;;;;
2023/03/14 03:24:19;;;;;;;3.03;0.77;;;8.80;99.90;;;;;;4959986;29;20031;-82
2023/03/14 03:26:45;;;;;;;5.82;1.02;;;8.80;99.90;;;;;;4965450;29;20054;-82
2023/03/14 03:29:11;;;;;;;6.70;1.25;;;8.90;99.90;;;;;;4959639;29;20131;-85
2023/03/14 03:31:38;;;;;;;5.82;0.95;;;9.00;99.90;;;;;;4962716;29;20031;-85
2023/03/14 03:36:02;;;;;;;6.25;1.02;;;9.00;99.90;;;;;;4964734;28;20081;-86
2023/03/14 03:37:57;;;;;;;3.53;0.90;;;9.00;99.90;;;;;;4907948;29;20068;-76
2023/03/14 03:40:23;;;;;;;4.97;1.17;;;9.00;99.90;;;;;;4949424;29;20043;-76
2023/03/14 03:46:29;;;;;;;4.65;1.17;;;8.90;99.90;;;;;;4964960;28;20411;-81
2023/03/14 04:14:34;;;;;;;5.05;1.15;;;9.00;99.90;;;;;;4998745;23;20051;-77
2023/03/14 04:16:59;;;;;;;7.82;1.05;;;9.10;99.90;;;;;;4947461;29;20034;-77
2023/03/14 04:19:25;;;;;;;5.82;0.85;;;9.00;99.90;;;;;;4960548;28;20024;-79
2023/03/14 04:21:50;;;;;;;4.85;1.13;;;9.00;99.90;;;;;;4944600;29;20023;-79
2023/03/14 04:24:16;;;;;;;8.98;1.05;;;9.00;99.90;;;;;;4961482;29;20078;-80
2023/03/14 04:26:42;;;;;;;12.55;1.35;;;9.00;99.90;;;;;;4960756;29;20496;-78
2023/03/14 04:29:07;;;;;;;5.28;1.08;;;8.90;99.90;;;;;;4936304;29;20031;-76
2023/03/14 04:31:33;;;;;;;5.47;1.05;;;8.90;99.90;;;;;;4961233;29;20054;-78
2023/03/14 04:33:59;;;;;;;6.03;1.45;;;8.90;99.90;;;;;;4960837;29;20392;-78
2023/03/14 04:36:24;;;;;;;7.82;1.33;;;8.90;99.90;;;;;;4961465;29;20106;-79
2023/03/14 04:38:50;;;;;;;5.38;1.10;;;8.90;99.90;;;;;;4960788;29;20031;-80
2023/03/14 04:41:16;;;;;;;6.13;1.15;;;9.00;99.90;;;;;;4958750;29;20031;-79
2023/03/14 04:43:41;;;;;;;7.93;1.55;;;9.00;99.90;;;;;;4961339;29;20035;-79
2023/03/14 04:46:53;;;;;;;6.18;1.25;;;9.00;99.90;;;;;;4961215;29;20116;-86
2023/03/14 04:49:19;;;;;;;3.75;1.00;;;9.00;99.90;;;;;;4959371;29;20019;-77
2023/03/14 04:51:45;;;;;;;5.68;1.40;;;8.90;99.90;;;;;;4959981;29;20023;-77
2023/03/14 04:54:10;;;;;;;8.57;2.03;;;8.80;99.90;;;;;;4944258;29;20030;-79
2023/03/14 04:56:36;;;;;;;5.60;1.00;;;8.80;99.90;;;;;;4959728;29;20436;-78
2023/03/14 04:59:03;;;;;;;8.23;1.60;;;8.80;99.90;;;;;;4958582;29;20035;-78
2023/03/14 05:01:29;;;;;;;4.22;0.80;;;8.70;99.90;;;;;;4952175;29;20550;-77
2023/03/14 05:03:54;;;;;;;7.72;1.20;;;8.80;99.90;;;;;;4943555;29;20114;-78
2023/03/14 05:06:20;;;;;;;5.07;1.10;;;8.80;99.90;;;;;;4961028;29;20024;-76
2023/03/14 05:08:46;;;;;;;9.70;1.55;;;8.80;99.90;;;;;;4960825;29;20042;-77
2023/03/14 05:11:12;;;;;;;5.32;0.85;;;8.70;99.90;;;;;;4960789;29;20024;-77
2023/03/14 05:13:38;;;;;;;3.45;0.90;;;8.70;99.90;;;;;;4960741;28;20043;-77
2023/03/14 05:16:47;;;;;;;4.35;1.40;;;8.70;99.90;;;;;;4960749;29;20027;-83
2023/03/14 05:24:04;;;;;;;6.43;1.00;;;8.60;99.90;;;;;;4946101;29;20048;-84
2023/03/14 05:26:35;;;;;;;4.70;0.90;;;8.60;99.90;;;;;;4933735;29;20027;-82
2023/03/14 05:32:47;;;;;;;3.60;0.82;;;8.50;99.90;;;;;;4930935;29;20700;-85
2023/03/14 05:35:28;;;;;;;;;;;;;;;;;;;;;
2023/03/14 05:37:54;;;;;;;5.65;1.30;;;8.50;99.90;;;;;;4919350;29;20039;-76
2023/03/14 05:43:42;;;;;;;8.15;1.17;;;8.40;99.90;;;;;;4919525;29;20047;-77
2023/03/14 05:46:10;;;;;;;6.90;1.50;;;8.40;99.90;;;;;;4919914;29;20028;-82
2023/03/14 05:48:36;;;;;;;10.27;1.60;;;8.40;99.90;;;;;;4923928;29;20025;-76
2023/03/14 05:51:01;;;;;;;7.20;1.30;;;8.40;99.90;;;;;;4957614;29;20098;-76
2023/03/14 05:53:29;;;;;;;5.85;1.42;;;8.30;99.90;;;;;;4960157;29;20055;-77
2023/03/14 05:55:56;;;;;;;6.78;1.85;;;8.30;99.90;;;;;;4959834;29;20110;-80
2023/03/14 05:58:39;;;;;;;;;;;;;;;;;;;;;
2023/03/14 06:01:14;;;;;;;5.70;1.00;;;8.30;99.90;;;;;;4950187;29;20395;-80
2023/03/14 06:03:46;;;;;;;6.13;1.15;;;8.30;99.90;;;;;;4942398;29;20067;-79
2023/03/14 06:09:41;;;;;;;5.97;1.17;;;8.20;99.90;;;;;;4956778;29;20530;-76
2023/03/14 06:19:38;;;;;;;6.18;1.30;;;8.20;99.90;;;;;;5815784;23;20028;-86
2023/03/14 06:22:29;;;;;;;9.50;1.33;;;;;;;;;;4921717;29;20043;-86
2023/03/14 06:24:55;;;;;;;6.70;1.17;;;;;;;;;;4904665;29;20096;-88
2023/03/14 06:27:21;;;;;;;6.40;1.35;;;;;;;;;;4905184;29;20032;-87
2023/03/14 06:30:19;;;;;;;5.88;1.08;;;;;;;;;;4921839;29;20328;-86
2023/03/14 06:32:45;;;;;;;4.25;1.20;;;;;;;;;;4892689;29;20036;-87
2023/03/14 06:35:18;;;;;;;6.78;1.00;;;;;;;;;;4920780;29;20083;-87
2023/03/14 06:44:09;;;;;;;6.18;1.40;;;8.10;99.90;;;;;;4902188;29;20073;-77
2023/03/14 06:46:35;;;;;;;4.63;1.10;;;8.10;99.90;;;;;;4901628;29;20052;-76
2023/03/14 06:53:19;;;;;;;2.95;0.80;;;8.00;99.90;;;;;;4919292;29;20067;-90
2023/03/14 07:07:39;;;;;;;3.88;0.98;;;8.00;99.90;;;;;;4891313;29;20036;-75
2023/03/14 07:10:05;;;;;;;5.93;1.25;;;8.10;99.90;;;;;;4885308;29;20044;-77
2023/03/14 07:21:06;;;;;;;3.78;1.02;;;8.00;99.90;;;;;;5777335;23;20092;-90
2023/03/14 07:26:41;;;;;;;4.32;0.80;;;8.10;99.90;;;;;;4867278;29;20120;-81
2023/03/14 07:29:44;;;;;;;6.30;0.90;;;8.20;99.90;;;;;;4915055;29;20032;-88
2023/03/14 07:45:53;;;;;;;5.15;0.90;;;8.00;99.90;;;;;;5619903;23;20151;-74
2023/03/14 07:48:19;;;;;;;5.63;1.30;;;8.10;99.90;;;;;;4919131;29;20028;-84
2023/03/14 07:50:49;;;;;;;3.75;0.88;;;8.10;99.90;;;;;;4909357;29;20039;-85
2023/03/14 07:53:14;;;;;;;5.55;0.98;;;8.20;99.90;;;;;;4916210;29;20036;-78
2023/03/14 07:55:40;;;;;;;7.03;1.05;;;8.30;99.90;;;;;;4921847;29;20405;-77
2023/03/14 07:58:07;;;;;;;6.60;0.98;;;8.30;99.90;;;;;;4921775;29;20024;-75
2023/03/14 08:00:32;;;;;;;5.13;1.27;;;8.30;99.90;;;;;;4923557;29;20420;-76
2023/03/14 08:02:58;;;;;;;7.13;1.30;;;8.30;99.90;;;;;;4906154;29;20032;-79
2023/03/14 08:05:24;;;;;;;6.13;1.00;;;8.40;99.90;;;;;;4922918;29;20508;-79
2023/03/14 08:07:49;;;;;;;6.97;1.33;;;8.40;99.90;;;;;;4923465;29;20063;-78
2023/03/14 08:10:25;;;;;;;5.72;1.10;;;8.40;99.90;;;;;;4922033;29;20033;-77
2023/03/14 08:12:53;;;;;;;6.22;1.30;;;8.50;99.90;;;;;;4923804;29;20072;-77
2023/03/14 08:15:19;;;;;;;7.95;1.50;;;8.50;99.90;;;;;;4923429;29;20028;-78
2023/03/14 08:17:44;;;;;;;7.15;1.33;;;8.60;99.90;;;;;;4923773;29;20043;-74
2023/03/14 08:20:12;;;;;;;5.40;1.23;;;8.60;99.90;;;;;;4905325;29;20123;-75
2023/03/14 08:22:38;;;;;;;7.05;1.05;;;8.60;99.90;;;;;;4905825;29;20408;-76
2023/03/14 08:25:04;;;;;;;4.00;1.25;;;8.60;99.90;;;;;;4923272;29;20063;-73
2023/03/14 08:27:30;;;;;;;4.05;0.90;;;8.70;99.90;;;;;;4923410;29;20028;-76
2023/03/14 08:29:56;;;;;;;2.95;0.80;;;8.70;99.90;;;;;;4906262;29;20576;-76
2023/03/14 08:32:23;;;;;;;5.03;1.08;;;8.70;99.90;;;;;;4906257;29;20401;-73
2023/03/14 08:34:50;;;;;;;6.63;0.80;;;8.70;99.90;;;;;;4922498;29;20028;-75
2023/03/14 08:37:16;;;;;;;5.07;0.93;;;8.80;99.90;;;;;;4921854;29;20028;-78
2023/03/14 08:39:42;;;;;;;5.57;1.00;;;8.80;99.90;;;;;;4922789;29;20024;-77
2023/03/14 08:42:07;;;;;;;4.93;1.00;;;8.90;99.90;;;;;;4923221;29;20024;-78
2023/03/14 08:44:33;;;;;;;4.57;1.40;;;8.90;99.90;;;;;;4923164;29;20496;-78
2023/03/14 08:46:59;;;;;;;5.97;1.17;;;9.00;99.90;;;;;;4906018;29;20071;-78
2023/03/14 08:49:24;;;;;;;7.63;1.00;;;9.00;99.90;;;;;;4905992;29;20127;-78
2023/03/14 08:51:50;;;;;;;5.57;1.20;;;9.10;99.90;;;;;;4923024;29;20496;-78
2023/03/14 08:54:16;;;;;;;9.00;1.17;;;9.10;99.90;;;;;;4905930;29;20032;-79
2023/03/14 08:56:41;;;;;;;4.28;0.93;;;9.10;99.90;;;;;;4905910;29;20107;-79
2023/03/14 08:59:08;;;;;;;5.35;1.13;;;9.20;99.90;;;;;;4922963;29;20043;-79
2023/03/14 09:01:33;;;;;;;3.92;1.10;;;9.20;99.90;;;;;;4905921;29;20032;-80
2023/03/14 09:03:59;;;;;;;7.63;1.13;;;9.30;99.90;;;;;;4921822;29;20036;-77
2023/03/14 09:06:24;;;;;;;4.78;1.10;;;9.30;99.90;;;;;;4916265;29;20034;-74
2023/03/14 09:08:50;;;;;;;4.70;1.27;;;9.30;99.90;;;;;;4920926;29;20445;-75
2023/03/14 09:11:17;;;;;;;5.63;1.27;;;9.30;99.90;;;;;;4921262;29;20056;-73
2023/03/14 09:13:43;;;;;;;5.65;1.23;;;9.30;99.90;;;;;;4920236;29;20033;-73
2023/03/14 09:16:09;;;;;;;4.55;1.20;;;9.40;99.90;;;;;;4922393;29;20028;-74
2023/03/14 09:18:35;;;;;;;5.57;1.27;;;9.30;99.90;;;;;;4905497;29;20167;-72
2023/03/14 09:21:01;;;;;;;6.18;1.30;;;9.40;99.90;;;;;;4922545;29;20024;-73
2023/03/14 09:23:27;;;;;;;5.30;1.13;;;9.40;99.90;;;;;;4922447;29;20108;-73
2023/03/14 09:25:57;;;;;;;7.40;1.58;;;9.50;99.90;;;;;;4904986;29;20028;-73
2023/03/14 09:28:23;;;;;;;5.35;0.93;;;9.50;99.90;;;;;;4921581;29;20099;-73
2023/03/14 09:30:49;;;;;;;5.57;1.17;;;;;;;;;;4902350;29;20024;-71
2023/03/14 09:33:16;;;;;;;8.35;1.55;;;9.70;99.90;;;;;;4921774;29;20028;-71
2023/03/14 09:35:42;;;;;;;4.72;1.02;;;;;;;;;;4922139;29;20062;-72
2023/03/14 09:38:08;;;;;;;4.82;1.02;;;;;;;;;;4922043;29;20036;-71
2023/03/14 09:40:35;;;;;;;4.90;1.00;;;;;;;;;;4921764;29;20032;-71
2023/03/14 09:43:01;;;;;;;4.90;0.88;;;;;;;;;;4921787;29;20032;-71
2023/03/14 09:45:33;;;;;;;5.32;1.10;;;;;;;;;;4921881;29;20052;-71
2023/03/14 09:48:01;;;;;;;4.95;1.00;;;10.10;99.90;;;;;;4921862;29;20052;-72
2023/03/14 09:50:36;;;;;;;6.35;1.38;;;10.10;99.90;;;;;;4921611;29;20036;-71
2023/03/14 09:53:11;;;;;;;6.18;1.20;;;10.10;99.90;;;;;;4921976;29;20086;-70
2023/03/14 09:55:36;;;;;;;5.05;0.73;;;10.30;99.90;;;;;;4904641;29;20032;-72
2023/03/14 09:58:08;;;;;;;5.97;1.20;;;10.40;99.90;;;;;;4921919;29;20512;-71
2023/03/14 10:00:35;;;;;;;4.57;1.00;;;10.20;99.90;;;;;;4921724;29;20075;-72
2023/03/14 10:03:12;;;;;;;5.90;1.13;;;10.40;99.90;;;;;;4921907;29;20057;-69
2023/03/14 10:05:42;;;;;;;6.18;0.68;;;10.50;99.90;;;;;;4904230;29;20032;-72
2023/03/14 10:08:11;;;;;;;6.65;1.23;;;10.60;99.90;;;;;;4921827;29;20043;-72
2023/03/14 10:10:38;;;;;;;5.18;0.80;;;10.60;99.90;;;;;;4904607;29;20041;-71
2023/03/14 10:13:15;;;;;;;5.57;0.93;;;10.50;99.90;;;;;;4921615;29;20032;-72
2023/03/14 10:15:41;;;;;;;7.10;0.88;;;10.60;99.90;;;;;;4921072;29;20087;-72
2023/03/14 10:18:13;;;;;;;6.85;0.95;;;10.60;99.90;;;;;;4921413;29;20056;-71
2023/03/14 10:20:47;;;;;;;6.50;1.00;;;10.70;99.20;;;;;;4921626;29;20113;-73
2023/03/14 10:23:13;;;;;;;5.07;1.10;;;;;;;;;;4921343;29;20043;-72
2023/03/14 10:25:42;;;;;;;5.28;0.88;;;10.60;97.60;;;;;;4921447;29;20485;-71
2023/03/14 10:28:27;;;;;;;6.22;1.13;;;10.60;98.00;;;;;;4921486;29;20103;-72
2023/03/14 10:30:53;;;;;;;5.57;1.20;;;10.70;99.20;;;;;;4921627;29;20366;-70
2023/03/14 10:33:25;;;;;;;4.78;0.90;;;;;;;;;;4904257;29;20420;-72
2023/03/14 10:35:55;;;;;;;6.20;1.05;;;10.50;99.10;;;;;;4921200;29;20024;-73
2023/03/14 10:38:27;;;;;;;3.42;0.75;;;10.50;99.90;;;;;;4904259;29;20512;-69
2023/03/14 10:40:54;;;;;;;3.97;0.95;;;10.40;99.90;;;;;;4921256;29;20020;-69
2023/03/14 10:43:26;;;;;;;8.00;1.20;;;;;;;;;;4921243;29;20048;-70
2023/03/14 10:46:06;;;;;;;5.07;0.93;;;;;;;;;;4920701;29;20056;-70
2023/03/14 10:48:33;;;;;;;5.93;1.10;;;10.60;96.70;;;;;;4913534;29;20024;-70
2023/03/14 10:51:06;;;;;;;6.50;1.00;;;10.70;99.20;;;;;;4920929;29;20024;-69
2023/03/14 10:53:48;;;;;;;5.50;1.17;;;10.80;98.50;;;;;;4921072;29;20040;-69
2023/03/14 10:56:15;;;;;;;3.50;1.08;;;;;;;;;;4916877;29;20028;-70
2023/03/14 10:58:43;;;;;;;6.22;1.00;;;11.00;93.40;;;;;;4920747;29;20068;-72
2023/03/14 11:01:26;;;;;;;2.63;0.90;;;11.10;94.20;;;;;;4903905;29;20024;-72
2023/03/14 11:03:54;;;;;;;6.70;1.10;;;;;;;;;;4920525;29;20048;-72
2023/03/14 11:06:20;;;;;;;5.72;0.95;;;;;;;;;;4920807;29;20024;-71
2023/03/14 11:09:05;;;;;;;4.68;1.25;;;11.30;90.10;;;;;;4920833;29;20054;-72
2023/03/14 11:11:32;;;;;;;6.88;1.00;;;11.30;90.20;;;;;;4920764;29;20021;-71
2023/03/14 11:14:03;;;;;;;5.85;1.10;;;11.50;93.30;;;;;;4920664;29;20038;-70
2023/03/14 11:16:35;;;;;;;4.30;1.08;;;11.60;84.90;;;;;;4935009;29;20028;-71
2023/03/14 11:19:15;;;;;;;3.95;0.80;;;11.50;82.70;;;;;;4920465;29;20036;-73
2023/03/14 11:21:42;;;;;;;4.60;1.05;;;11.50;85.70;;;;;;4920661;29;20025;-72
2023/03/14 11:24:13;;;;;;;4.45;1.35;;;11.70;83.40;;;;;;4920943;29;20477;-71
2023/03/14 11:26:41;;;;;;;4.50;1.02;;;11.90;78.20;;;;;;4920288;29;20064;-72
2023/03/14 11:29:16;;;;;;;7.63;1.23;;;;;;;;;;4918499;29;20549;-75
2023/03/14 11:31:44;;;;;;;4.80;1.40;;;;;;;;;;4907008;29;20055;-72
2023/03/14 11:34:49;;;;;;;3.80;0.95;;;11.90;79.10;;;;;;4917870;29;20402;-74
2023/03/14 11:37:43;;;;;;;3.40;1.08;;;11.90;81.20;;;;;;4922251;29;20563;-74
2023/03/14 11:40:20;;;;;;;4.97;1.45;;;;;;;;;;4920511;29;20036;-74
2023/03/14 11:42:49;;;;;;;4.70;1.27;;;;;;;;;;4924069;29;20020;-73
2023/03/14 11:45:20;;;;;;;7.18;1.42;;;12.20;71.30;;;;;;4918268;29;20028;-74
2023/03/14 11:47:53;;;;;;;5.82;1.33;;;12.30;69.50;;;;;;4921812;29;20571;-73
2023/03/14 11:50:27;;;;;;;6.03;1.63;;;12.50;70.80;;;;;;4919573;29;20401;-69
2023/03/14 11:52:58;;;;;;;4.05;1.35;;;12.60;70.90;;;;;;4924084;29;20084;-77
2023/03/14 11:55:36;;;;;;;5.93;1.33;;;12.50;68.80;;;;;;4906936;29;20043;-76
2023/03/14 11:58:29;;;;;;;5.03;1.15;;;12.50;71.10;;;;;;4921362;29;20029;-77
2023/03/14 12:00:57;;;;;;;4.40;1.35;;;12.70;75.30;;;;;;4920750;29;20028;-75
2023/03/14 12:03:29;;;;;;;5.55;1.30;;;12.60;68.60;;;;;;4923593;29;20081;-74
2023/03/14 12:06:19;;;;;;;4.82;1.33;;;12.50;65.60;;;;;;4923250;29;20036;-73
2023/03/14 12:08:51;;;;;;;4.93;1.30;;;12.40;67.50;;;;;;4922189;29;20107;-72
2023/03/14 12:11:41;;;;;;;4.00;1.30;;;12.50;70.20;;;;;;4922028;29;20025;-74
2023/03/14 12:14:36;;;;;;;5.85;1.42;;;12.60;62.80;;;;;;4923674;29;20531;-73
2023/03/14 12:17:26;;;;;;;6.38;1.45;;;12.60;62.00;;;;;;4922862;29;20036;-73
2023/03/14 12:20:16;;;;;;;7.03;1.25;;;12.90;66.80;;;;;;4922873;29;20118;-73
2023/03/14 12:22:54;;;;;;;6.20;1.30;;;12.80;61.40;;;;;;4923134;29;20038;-73
2023/03/14 12:25:23;;;;;;;5.60;1.20;;;12.70;60.10;;;;;;4921975;29;20107;-72
2023/03/14 12:28:04;;;;;;;5.10;1.17;;;12.70;64.10;;;;;;4923196;29;20035;-72
2023/03/14 12:30:39;;;;;;;4.97;1.10;;;12.60;59.00;;;;;;4922980;29;20076;-73
2023/03/14 12:33:11;;;;;;;5.68;1.30;;;12.50;62.20;;;;;;4906222;29;20024;-73
2023/03/14 12:35:39;;;;;;;6.88;1.55;;;12.50;68.50;;;;;;4922625;29;20063;-71
2023/03/14 12:38:09;;;;;;;6.75;1.45;;;;;;;;;;4923005;29;20056;-72
2023/03/14 12:40:47;;;;;;;5.05;1.30;;;12.30;61.70;;;;;;4922469;29;20036;-75
2023/03/14 12:43:28;;;;;;;8.20;1.60;;;12.30;64.70;;;;;;4922540;29;20040;-75
2023/03/14 12:46:08;;;;;;;6.25;1.13;;;12.50;63.30;;;;;;4922779;29;20048;-73
2023/03/14 12:48:34;;;;;;;7.25;1.40;;;12.80;64.00;;;;;;4913661;29;20110;-73
2023/03/14 12:51:04;;;;;;;5.57;1.20;;;12.90;67.20;;;;;;4919947;29;20059;-74
2023/03/14 12:53:59;;;;;;;4.43;1.30;;;13.10;63.90;;;;;;4922344;29;20024;-73
2023/03/14 12:56:39;;;;;;;6.32;0.95;;;13.30;61.90;;;;;;4921258;29;20024;-72
2023/03/14 12:59:34;;;;;;;3.05;1.15;;;13.30;56.20;;;;;;4904567;29;20401;-73
2023/03/14 13:02:08;;;;;;;7.38;1.20;;;12.90;56.30;;;;;;4921244;29;20047;-66
2023/03/14 13:04:42;;;;;;;4.43;1.75;;;12.70;58.80;;;;;;4904768;29;20096;-66
2023/03/14 13:07:12;;;;;;;5.82;1.10;;;12.60;57.60;;;;;;4922546;29;20020;-66
2023/03/14 13:09:52;;;;;;;5.15;1.10;;;12.40;59.00;;;;;;4922571;29;20072;-66
2023/03/14 13:12:22;;;;;;;6.10;1.10;;;12.40;60.40;;;;;;4922766;29;20083;-67
2023/03/14 13:14:51;;;;;;;7.35;1.70;;;12.40;59.40;;;;;;4922778;29;20029;-66
2023/03/14 13:17:25;;;;;;;5.15;1.05;;;12.50;60.50;;;;;;4916830;29;20032;-68
2023/03/14 13:19:56;;;;;;;3.35;1.08;;;12.60;60.90;;;;;;4905165;29;20168;-67
2023/03/14 13:22:31;;;;;;;4.05;1.33;;;12.60;58.90;;;;;;4921089;29;20055;-69
2023/03/14 13:25:06;;;;;;;5.25;0.90;;;12.70;56.40;;;;;;4922015;29;20024;-72
2023/03/14 13:27:34;;;;;;;5.70;0.98;;;13.00;55.50;;;;;;4922269;29;20035;-71
2023/03/14 13:30:14;;;;;;;2.97;1.02;;;13.30;53.10;;;;;;4922323;29;20024;-71
2023/03/14 13:32:43;;;;;;;7.32;1.20;;;13.50;54.30;;;;;;4905341;29;20035;-70
2023/03/14 13:35:27;;;;;;;6.55;1.15;;;13.60;52.70;;;;;;4909963;29;20142;-69
2023/03/14 13:38:01;;;;;;;6.70;1.73;;;13.60;56.10;;;;;;4921754;29;20032;-76
2023/03/14 13:40:33;;;;;;;5.97;1.65;;;13.20;61.00;;;;;;4905453;29;20139;-76
2023/03/14 13:43:05;;;;;;;7.18;2.10;;;12.60;65.70;;;;;;4922266;29;20032;-78
2023/03/14 13:45:31;;;;;;;9.25;1.83;;;12.20;72.10;;;;;;4922024;29;20465;-68
2023/03/14 13:47:57;;;;;;;9.73;1.83;;;12.00;79.00;;;;;;4904662;29;20035;-77
2023/03/14 13:50:22;;;;;;;7.38;1.67;;;11.90;80.30;;;;;;4921299;29;20027;-68
2023/03/14 13:52:55;;;;;;;5.38;2.08;;;11.80;83.50;;;;;;4909036;29;20111;-68
2023/03/14 13:55:22;;;;;;;9.98;2.13;;;11.80;86.50;;;;;;4921827;29;20504;-77
2023/03/14 13:57:54;;;;;;;5.32;1.50;;;11.90;87.00;;;;;;4904872;29;20032;-68
2023/03/14 14:00:26;;;;;;;8.05;2.03;;;12.00;86.30;;;;;;4904587;29;20028;-77
2023/03/14 14:02:54;;;;;;;6.82;1.40;;;12.10;86.70;;;;;;4921691;29;20027;-78
2023/03/14 14:05:21;;;;;;;7.15;2.10;;;12.20;85.60;;;;;;4921445;29;20035;-78
2023/03/14 14:07:48;;;;;;;7.13;1.25;;;12.30;87.50;;;;;;4921878;29;20107;-68
2023/03/14 14:10:14;;;;;;;8.70;1.73;;;12.30;81.80;;;;;;4921425;29;20103;-67
2023/03/14 14:12:49;;;;;;;7.50;1.65;;;12.20;83.30;;;;;;4921614;29;20477;-67
2023/03/14 14:15:26;;;;;;;5.40;1.40;;;12.20;82.90;;;;;;4910687;29;20035;-76
2023/03/14 14:17:57;;;;;;;7.78;1.65;;;12.20;86.50;;;;;;4921511;29;20028;-76
2023/03/14 14:20:31;;;;;;;6.07;1.60;;;12.30;85.50;;;;;;4904094;29;20442;-68
2023/03/14 14:22:57;;;;;;;6.47;1.70;;;12.30;87.00;;;;;;4904015;29;20040;-71
2023/03/14 14:25:23;;;;;;;7.30;1.50;;;12.20;85.10;;;;;;4921064;29;20143;-67
2023/03/14 14:27:50;;;;;;;5.65;1.30;;;12.10;80.30;;;;;;4904183;29;20485;-75
2023/03/14 14:30:18;;;;;;;7.45;1.33;;;12.00;81.20;;;;;;4904466;29;20032;-70
2023/03/14 14:32:46;;;;;;;4.90;1.15;;;12.00;82.70;;;;;;4921257;29;20024;-70
2023/03/14 14:35:26;;;;;;;4.60;1.50;;;11.80;83.80;;;;;;4921185;29;20036;-70
2023/03/14 14:37:52;;;;;;;4.50;1.13;;;11.90;82.30;;;;;;4903925;29;20020;-74
2023/03/14 14:40:26;;;;;;;6.90;1.15;;;11.80;79.00;;;;;;4921208;29;20028;-73
2023/03/14 14:42:52;;;;;;;5.68;0.98;;;11.90;82.20;;;;;;4921321;29;20028;-76
2023/03/14 14:45:23;;;;;;;4.15;1.00;;;11.90;79.70;;;;;;4920807;29;20030;-75
2023/03/14 14:48:17;;;;;;;4.88;0.88;;;11.90;80.70;;;;;;4903769;29;20028;-73
2023/03/14 14:51:02;;;;;;;3.72;0.90;;;11.80;77.00;;;;;;4918354;29;20032;-73
2023/03/14 14:53:42;;;;;;;3.70;0.82;;;11.90;81.00;;;;;;4921071;29;20029;-73
2023/03/14 14:56:22;;;;;;;4.38;0.95;;;12.00;82.30;;;;;;4920786;29;20400;-73
2023/03/14 14:58:49;;;;;;;1.92;0.47;;;12.20;85.20;;;;;;4920822;29;20457;-74
2023/03/14 15:01:16;;;;;;;2.55;0.73;;;12.30;83.70;;;;;;4921003;29;20381;-74
2023/03/14 15:03:43;;;;;;;2.55;0.70;;;12.30;82.60;;;;;;4920308;29;20477;-74
2023/03/14 15:06:12;;;;;;;4.57;0.77;;;12.40;74.80;;;;;;4916340;29;20032;-76
2023/03/14 15:08:38;;;;;;;2.92;0.90;;;12.10;76.30;;;;;;4920546;29;20541;-75
2023/03/14 15:11:04;;;;;;;3.25;0.73;;;12.00;73.70;;;;;;4920764;29;20043;-74
2023/03/14 15:13:30;;;;;;;3.03;0.73;;;12.00;73.80;;;;;;4920711;29;20024;-72
2023/03/14 15:15:56;;;;;;;5.40;0.95;;;11.90;77.70;;;;;;4920752;29;20115;-72
2023/03/14 15:18:24;;;;;;;2.42;0.68;;;11.90;82.00;;;;;;4903366;29;20557;-72